Terminal Aerodrome Forecast
Issued by NWS

Home | Current Version | Previous Version | Text Only | Print | Product List | Glossary On
Versions: 1 2 3 4 5 6 7 8 9 10 11 12 13 14 15 16 17 18 19 20 21 22 23 24 25 26 27 28
000
FTUS44 KLIX 260500
TAFHDC
TAF
KHDC 260526Z 2606/2706 00000KT P6SM SKC
     FM261000 00000KT P6SM SKC
     FM261500 25006KT P6SM SKC
     FM261700 24010KT P6SM SKC
     FM270200 28008KT P6SM SKC=

USA.gov is the U.S. government's official web portal to all federal, state and local government web resources and services.